Terminal Aerodrome Forecast
Issued by NWS Grand Forks, ND

Home | Current Version | Previous Version | Text Only | Print | Product List | Glossary On
Versions: 1 2 3 4 5 6 7 8 9 10 11 12 13 14 15 16 17
970
FTUS43 KFGF 251136
TAFFAR
TAF
KFAR 251136Z 2512/2612 27009KT P6SM BKN025
     FM251500 30013G20KT P6SM BKN030
     FM251600 30013G20KT P6SM OVC045
     FM252300 32009KT P6SM BKN070
     FM260100 29006KT P6SM SCT150
     FM260600 21004KT P6SM FEW250=

USA.gov is the U.S. government's official web portal to all federal, state and local government web resources and services.